Time;durP1;ratioP1;P1;durP2;ratioP2;P2;SDS_P1;SDS_P2;PMS_P1;PMS_P2;Temp;Humidity;BMP_temperature;BMP_pressure;BME280_temperature;BME280_humidity;BME280_pressure;Samples;Min_cycle;Max_cycle;Signal;HPM_P1;HPM_P2
2023/07/18 00:01:01;;;;;;;8.77;3.63;;;15.30;99.90;;;;;;5009917;28;20488;-64
2023/07/18 00:03:28;;;;;;;8.98;4.15;;;15.30;99.90;;;;;;5011852;28;20083;-64
2023/07/18 00:05:54;;;;;;;9.82;3.95;;;15.30;99.90;;;;;;5009746;28;20500;-64
2023/07/18 00:08:20;;;;;;;8.05;3.80;;;15.30;99.90;;;;;;5010661;28;20113;-64
2023/07/18 00:10:45;;;;;;;8.95;4.55;;;15.30;99.90;;;;;;5006648;28;20432;-64
2023/07/18 00:13:11;;;;;;;7.05;3.55;;;15.30;99.90;;;;;;5008686;28;20173;-64
2023/07/18 00:15:37;;;;;;;6.60;3.85;;;15.30;99.90;;;;;;5008678;28;20070;-64
2023/07/18 00:18:03;;;;;;;9.23;3.90;;;15.40;99.90;;;;;;5002880;28;20408;-64
2023/07/18 00:20:30;;;;;;;7.00;3.63;;;15.20;99.90;;;;;;5012058;28;20045;-64
2023/07/18 00:22:56;;;;;;;8.73;4.05;;;15.30;99.90;;;;;;5013883;28;20132;-64
2023/07/18 00:25:22;;;;;;;9.75;4.30;;;15.30;99.90;;;;;;5009758;28;20077;-64
2023/07/18 00:27:53;;;;;;;6.18;3.85;;;15.30;99.90;;;;;;5011939;28;20038;-64
2023/07/18 00:30:20;;;;;;;10.77;3.85;;;15.20;99.90;;;;;;5011825;28;20396;-64
2023/07/18 00:32:46;;;;;;;12.43;4.10;;;15.20;99.90;;;;;;5008323;28;20418;-64
2023/07/18 00:35:13;;;;;;;10.45;4.32;;;15.30;99.90;;;;;;5008121;28;20034;-64
2023/07/18 00:37:40;;;;;;;9.30;4.07;;;15.20;99.90;;;;;;4992535;28;20074;-64
2023/07/18 00:40:16;;;;;;;8.65;4.03;;;15.20;99.90;;;;;;5003853;28;20046;-64
2023/07/18 00:42:47;;;;;;;9.07;3.90;;;15.30;99.90;;;;;;5010087;28;20053;-64
2023/07/18 00:45:13;;;;;;;9.55;3.58;;;15.20;99.90;;;;;;4999963;28;20038;-64
2023/07/18 00:47:41;;;;;;;9.38;3.70;;;15.20;99.90;;;;;;4997542;28;20045;-64
2023/07/18 00:50:15;;;;;;;10.13;3.80;;;15.20;99.90;;;;;;5010458;28;20112;-64
2023/07/18 00:52:52;;;;;;;6.45;3.55;;;15.20;99.90;;;;;;5003140;28;20037;-64
2023/07/18 00:55:19;;;;;;;9.30;3.95;;;15.10;99.90;;;;;;5004468;28;20034;-64
2023/07/18 00:57:46;;;;;;;8.25;4.03;;;15.10;99.90;;;;;;5011407;28;20121;-64
2023/07/18 01:00:13;;;;;;;10.70;4.25;;;15.20;99.90;;;;;;4990804;28;20034;-64
2023/07/18 01:02:43;;;;;;;6.95;3.72;;;15.20;99.90;;;;;;4998252;28;20520;-65
2023/07/18 01:05:09;;;;;;;7.25;3.47;;;15.20;99.90;;;;;;5003137;28;20570;-64
2023/07/18 01:07:35;;;;;;;7.03;3.58;;;15.10;99.90;;;;;;4993185;28;20245;-65
2023/07/18 01:10:24;;;;;;;9.25;4.32;;;15.10;99.90;;;;;;5025266;28;20033;-64
2023/07/18 01:13:00;;;;;;;6.10;4.18;;;15.10;99.90;;;;;;5011656;28;20087;-64
2023/07/18 01:15:30;;;;;;;6.82;3.80;;;15.00;99.90;;;;;;5007019;28;20049;-64
2023/07/18 01:17:56;;;;;;;8.55;3.88;;;15.00;99.90;;;;;;5010156;28;20470;-64
2023/07/18 01:20:27;;;;;;;9.02;4.15;;;15.00;99.90;;;;;;5015268;28;20033;-64
2023/07/18 01:22:58;;;;;;;9.05;3.53;;;15.10;99.90;;;;;;5013677;28;20038;-64
2023/07/18 01:25:23;;;;;;;10.13;4.07;;;15.00;99.90;;;;;;5013234;28;20396;-64
2023/07/18 01:27:51;;;;;;;10.00;4.18;;;15.00;99.90;;;;;;5010605;28;20038;-64
2023/07/18 01:30:19;;;;;;;8.65;3.80;;;15.00;99.90;;;;;;5009960;28;20100;-64
2023/07/18 01:32:48;;;;;;;8.13;3.38;;;15.00;99.90;;;;;;5006632;28;20074;-64
2023/07/18 01:35:14;;;;;;;7.00;4.10;;;14.90;99.90;;;;;;4993839;28;20073;-64
2023/07/18 01:37:44;;;;;;;7.57;3.30;;;14.90;99.90;;;;;;5015889;28;20038;-64
2023/07/18 01:40:14;;;;;;;7.00;3.40;;;14.90;99.90;;;;;;5013140;28;20129;-64
2023/07/18 01:42:40;;;;;;;7.80;3.72;;;14.90;99.90;;;;;;5014770;28;20030;-64
2023/07/18 01:45:07;;;;;;;10.38;3.58;;;14.90;99.90;;;;;;5012710;28;20076;-64
2023/07/18 01:47:33;;;;;;;9.38;3.53;;;14.90;99.90;;;;;;5011180;28;20640;-64
2023/07/18 01:50:04;;;;;;;12.02;3.90;;;14.90;99.90;;;;;;5008476;28;20033;-64
2023/07/18 01:52:31;;;;;;;8.13;3.72;;;14.90;99.90;;;;;;5012820;28;20033;-64
2023/07/18 01:54:58;;;;;;;9.93;3.85;;;14.80;99.90;;;;;;5011017;28;20100;-64
2023/07/18 01:57:30;;;;;;;8.57;3.70;;;14.80;99.90;;;;;;5011625;28;20041;-64
2023/07/18 01:59:58;;;;;;;9.05;4.25;;;14.80;99.90;;;;;;5011498;28;20125;-64
2023/07/18 02:02:24;;;;;;;7.75;3.72;;;14.80;99.90;;;;;;5009595;28;20038;-64
2023/07/18 02:04:50;;;;;;;5.93;3.58;;;14.80;99.90;;;;;;5005731;28;20100;-64
2023/07/18 02:07:16;;;;;;;9.38;3.88;;;14.80;99.90;;;;;;5008537;28;20049;-64
2023/07/18 02:09:41;;;;;;;7.93;4.03;;;14.80;99.90;;;;;;5012510;28;20048;-64
2023/07/18 02:12:08;;;;;;;10.07;4.35;;;14.80;99.90;;;;;;5010375;28;20033;-64
2023/07/18 02:14:36;;;;;;;13.52;4.30;;;14.80;99.90;;;;;;5010675;28;20134;-64
2023/07/18 02:17:03;;;;;;;11.20;4.35;;;14.80;99.90;;;;;;5006178;28;20399;-64
2023/07/18 02:19:28;;;;;;;8.32;3.85;;;14.80;99.90;;;;;;5014012;28;20073;-64
2023/07/18 02:21:54;;;;;;;8.07;4.85;;;14.80;99.90;;;;;;5013427;28;20073;-64
2023/07/18 02:24:20;;;;;;;8.68;3.70;;;14.70;99.90;;;;;;5012797;28;20138;-64
2023/07/18 02:26:45;;;;;;;11.32;4.03;;;14.70;99.90;;;;;;5003611;28;20037;-64
2023/07/18 02:29:13;;;;;;;8.80;3.50;;;14.70;99.90;;;;;;5006363;28;20377;-64
2023/07/18 02:31:39;;;;;;;8.23;4.10;;;14.70;99.90;;;;;;4998108;28;20042;-64
2023/07/18 02:34:05;;;;;;;13.15;4.28;;;14.60;99.90;;;;;;5014762;28;20041;-64
2023/07/18 02:36:32;;;;;;;10.90;4.20;;;14.70;99.90;;;;;;5013692;28;20104;-64
2023/07/18 02:38:57;;;;;;;8.60;3.67;;;14.60;99.90;;;;;;5011571;28;20088;-64
2023/07/18 02:41:23;;;;;;;9.32;4.22;;;14.60;99.90;;;;;;5005690;28;20045;-64
2023/07/18 02:43:49;;;;;;;10.30;4.57;;;14.60;99.90;;;;;;5011684;28;20037;-64
2023/07/18 02:46:14;;;;;;;8.00;4.43;;;14.60;99.90;;;;;;5007578;28;20403;-64
2023/07/18 02:48:40;;;;;;;9.40;3.70;;;14.60;99.90;;;;;;5005420;28;20065;-64
2023/07/18 02:51:06;;;;;;;8.73;4.00;;;14.60;99.90;;;;;;5012922;28;20100;-64
2023/07/18 02:53:31;;;;;;;10.13;4.60;;;14.60;99.90;;;;;;5013541;28;20100;-64
2023/07/18 02:55:57;;;;;;;8.15;4.32;;;14.60;99.90;;;;;;5013611;28;20125;-64
2023/07/18 02:58:22;;;;;;;6.95;4.00;;;14.60;99.90;;;;;;5012347;28;20627;-64
2023/07/18 03:00:51;;;;;;;6.78;3.63;;;14.50;99.90;;;;;;5010083;28;20034;-64
2023/07/18 03:03:16;;;;;;;10.43;3.90;;;14.50;99.90;;;;;;4994185;28;20042;-64
2023/07/18 03:05:42;;;;;;;10.02;3.92;;;14.50;99.90;;;;;;4992091;28;20041;-64
2023/07/18 03:08:07;;;;;;;9.68;4.32;;;14.50;99.90;;;;;;4993961;28;20491;-65
2023/07/18 03:10:33;;;;;;;9.85;4.00;;;14.50;99.90;;;;;;5011189;28;20042;-64
2023/07/18 03:12:59;;;;;;;7.88;3.88;;;14.50;99.90;;;;;;5011826;28;20037;-64
2023/07/18 03:15:24;;;;;;;7.05;3.58;;;14.50;99.90;;;;;;5013310;28;20099;-64
2023/07/18 03:17:50;;;;;;;13.02;4.00;;;14.50;99.90;;;;;;5012393;28;20044;-64
2023/07/18 03:20:19;;;;;;;7.28;4.05;;;14.50;99.90;;;;;;4992996;28;20053;-64
2023/07/18 03:22:49;;;;;;;9.45;4.25;;;14.50;99.90;;;;;;4993760;28;20494;-64
2023/07/18 03:25:17;;;;;;;9.10;3.83;;;14.40;99.90;;;;;;5005061;28;20042;-64
2023/07/18 03:27:43;;;;;;;11.18;4.00;;;14.40;99.90;;;;;;5011914;28;20492;-64
2023/07/18 03:30:12;;;;;;;5.13;3.60;;;14.40;99.90;;;;;;5012743;28;20050;-64
2023/07/18 03:32:39;;;;;;;9.77;4.22;;;14.40;99.90;;;;;;5011324;28;20045;-64
2023/07/18 03:35:14;;;;;;;9.05;4.32;;;14.40;99.90;;;;;;5008448;28;20042;-64
2023/07/18 03:37:39;;;;;;;8.35;4.32;;;14.30;99.90;;;;;;5011712;28;20037;-64
2023/07/18 03:40:06;;;;;;;8.38;4.20;;;14.40;99.90;;;;;;5011506;28;20038;-64
2023/07/18 03:42:32;;;;;;;9.00;4.25;;;14.40;99.90;;;;;;5011872;28;20445;-64
2023/07/18 03:44:58;;;;;;;8.25;3.78;;;14.40;99.90;;;;;;5013142;28;20045;-64
2023/07/18 03:47:24;;;;;;;9.57;3.78;;;14.40;99.90;;;;;;5010347;28;20180;-64
2023/07/18 03:49:50;;;;;;;7.20;3.78;;;14.30;99.90;;;;;;5011971;28;20140;-64
2023/07/18 03:52:16;;;;;;;8.05;3.75;;;14.40;99.90;;;;;;5005451;28;20046;-65
2023/07/18 03:54:43;;;;;;;10.75;4.18;;;14.30;99.90;;;;;;5010478;28;20044;-64
2023/07/18 03:57:08;;;;;;;12.43;4.53;;;14.30;99.90;;;;;;5009029;28;20042;-64
2023/07/18 03:59:34;;;;;;;8.98;4.38;;;14.30;99.90;;;;;;5007769;28;20088;-64
2023/07/18 04:02:00;;;;;;;10.00;3.90;;;14.40;99.90;;;;;;5003047;28;20520;-64
2023/07/18 04:04:27;;;;;;;10.00;3.85;;;14.30;99.90;;;;;;5007486;28;20069;-64
2023/07/18 04:06:53;;;;;;;9.80;4.00;;;14.30;99.90;;;;;;5010503;28;20046;-64
2023/07/18 04:09:19;;;;;;;10.07;3.80;;;14.30;99.90;;;;;;5011325;28;20038;-64
2023/07/18 04:11:46;;;;;;;10.05;3.55;;;14.30;99.90;;;;;;5009074;28;20038;-64
2023/07/18 04:14:12;;;;;;;13.52;4.20;;;14.30;99.90;;;;;;5010748;28;20107;-64
2023/07/18 04:16:37;;;;;;;8.35;3.80;;;14.30;99.90;;;;;;5013915;28;20037;-64
2023/07/18 04:19:03;;;;;;;7.78;3.70;;;14.40;99.90;;;;;;5010096;28;20103;-64
2023/07/18 04:21:29;;;;;;;9.70;4.00;;;14.40;99.90;;;;;;5010692;28;20507;-64
2023/07/18 04:23:55;;;;;;;8.85;3.30;;;14.30;99.90;;;;;;5010354;28;20029;-64
2023/07/18 04:26:20;;;;;;;8.95;4.10;;;14.40;99.90;;;;;;5011429;28;20127;-64
2023/07/18 04:28:46;;;;;;;11.15;4.03;;;14.40;99.90;;;;;;5011764;28;20041;-64
2023/07/18 04:31:13;;;;;;;9.88;3.70;;;14.40;99.90;;;;;;4992339;28;20126;-64
2023/07/18 04:33:39;;;;;;;12.15;3.30;;;14.40;99.90;;;;;;5001616;28;20041;-64
2023/07/18 04:36:07;;;;;;;8.65;3.60;;;14.40;99.90;;;;;;5006432;28;20411;-64
2023/07/18 04:38:34;;;;;;;10.60;3.42;;;14.40;99.90;;;;;;5011363;28;20041;-64
2023/07/18 04:41:00;;;;;;;7.68;3.28;;;14.50;99.90;;;;;;5010376;28;20034;-64
2023/07/18 04:43:27;;;;;;;15.23;3.95;;;14.50;99.90;;;;;;5006079;28;20128;-64
2023/07/18 04:45:53;;;;;;;9.73;3.53;;;14.50;99.90;;;;;;5007427;28;20041;-64
2023/07/18 04:48:18;;;;;;;9.45;3.60;;;14.60;99.90;;;;;;5006857;28;20025;-64
2023/07/18 04:50:51;;;;;;;11.98;4.03;;;14.60;99.90;;;;;;5009131;28;20042;-64
2023/07/18 04:53:17;;;;;;;8.07;3.50;;;14.60;99.90;;;;;;5006362;28;20377;-64
2023/07/18 04:55:44;;;;;;;9.70;3.80;;;14.70;99.90;;;;;;5006248;28;20053;-64
2023/07/18 04:58:10;;;;;;;10.63;3.83;;;14.70;99.90;;;;;;5006606;28;20037;-64
2023/07/18 05:00:36;;;;;;;10.57;3.97;;;14.70;99.90;;;;;;5010720;28;20053;-64
2023/07/18 05:03:02;;;;;;;10.75;3.70;;;14.70;99.90;;;;;;5009599;28;20479;-64
2023/07/18 05:05:29;;;;;;;8.10;3.40;;;14.80;99.90;;;;;;5005581;28;20042;-64
2023/07/18 05:07:56;;;;;;;11.82;3.35;;;14.80;99.90;;;;;;5022387;23;20046;-65
2023/07/18 05:10:25;;;;;;;6.75;3.13;;;14.80;99.90;;;;;;5006107;28;20034;-66
2023/07/18 05:12:52;;;;;;;9.85;3.58;;;14.90;99.90;;;;;;5010480;28;20045;-66
2023/07/18 05:15:18;;;;;;;10.75;4.30;;;14.90;99.90;;;;;;4996895;28;20038;-66
2023/07/18 05:17:43;;;;;;;8.02;3.10;;;15.00;99.90;;;;;;5011373;28;20125;-65
2023/07/18 05:20:10;;;;;;;8.15;2.95;;;15.00;99.90;;;;;;5010373;28;20070;-68
2023/07/18 05:22:38;;;;;;;10.55;3.97;;;15.00;99.90;;;;;;5010092;28;20030;-66
2023/07/18 05:25:04;;;;;;;8.00;3.28;;;15.10;99.90;;;;;;5008377;28;20058;-66
2023/07/18 05:27:30;;;;;;;8.38;3.40;;;15.10;99.90;;;;;;5009147;28;20065;-66
2023/07/18 05:29:56;;;;;;;10.32;3.30;;;15.20;99.90;;;;;;5002900;28;20109;-67
2023/07/18 05:32:22;;;;;;;8.07;3.30;;;15.20;99.90;;;;;;5009527;28;20480;-66
2023/07/18 05:34:49;;;;;;;9.05;3.10;;;15.40;99.90;;;;;;5007783;28;20542;-67
2023/07/18 05:37:15;;;;;;;11.30;3.35;;;15.50;99.90;;;;;;5009208;28;20080;-66
2023/07/18 05:39:41;;;;;;;7.28;3.20;;;15.70;99.90;;;;;;5010193;28;20042;-67
2023/07/18 05:42:07;;;;;;;7.90;3.50;;;15.70;99.90;;;;;;5007547;28;20403;-66
2023/07/18 05:44:32;;;;;;;8.25;3.22;;;15.80;99.90;;;;;;5009113;28;20042;-67
2023/07/18 05:46:58;;;;;;;7.95;3.22;;;15.80;99.90;;;;;;5010047;28;20117;-66
2023/07/18 05:49:24;;;;;;;6.80;2.85;;;15.90;99.90;;;;;;5011325;28;20041;-67
2023/07/18 05:51:50;;;;;;;9.15;2.90;;;16.00;99.90;;;;;;5008984;28;20049;-67
2023/07/18 05:54:15;;;;;;;5.35;2.80;;;16.10;99.90;;;;;;5010672;28;20042;-67
2023/07/18 05:56:44;;;;;;;9.80;2.90;;;16.10;99.90;;;;;;5011729;28;20045;-67
2023/07/18 05:59:10;;;;;;;10.38;3.10;;;16.10;99.90;;;;;;5009218;28;20034;-67
2023/07/18 06:01:35;;;;;;;8.73;2.78;;;16.20;99.90;;;;;;5010854;28;20057;-67
2023/07/18 06:04:01;;;;;;;7.90;3.28;;;16.20;99.90;;;;;;5010115;28;20038;-67
2023/07/18 06:06:27;;;;;;;9.75;3.30;;;16.30;99.90;;;;;;5014788;28;20061;-67
2023/07/18 06:08:52;;;;;;;11.02;3.63;;;16.20;99.90;;;;;;5015280;28;20041;-66
2023/07/18 06:11:21;;;;;;;7.72;3.30;;;16.30;99.90;;;;;;5013639;28;20497;-67
2023/07/18 06:13:49;;;;;;;8.00;3.08;;;16.30;99.90;;;;;;5008197;28;20042;-66
2023/07/18 06:16:14;;;;;;;8.65;3.65;;;16.40;99.90;;;;;;5008545;28;20042;-67
2023/07/18 06:18:43;;;;;;;6.00;3.42;;;16.50;99.90;;;;;;5013709;28;20506;-67
2023/07/18 06:21:09;;;;;;;9.77;2.95;;;16.60;99.90;;;;;;5012617;28;20508;-66
2023/07/18 06:23:34;;;;;;;9.50;3.63;;;16.60;99.90;;;;;;5014153;28;20065;-67
2023/07/18 06:26:00;;;;;;;9.45;3.20;;;16.80;99.90;;;;;;5012802;28;20048;-67
2023/07/18 06:28:25;;;;;;;8.98;3.50;;;16.90;99.90;;;;;;5013560;28;20046;-66
2023/07/18 06:30:55;;;;;;;8.63;3.25;;;16.90;99.90;;;;;;5013019;28;20030;-67
2023/07/18 06:33:21;;;;;;;10.75;3.53;;;17.00;99.90;;;;;;5006208;28;20073;-67
2023/07/18 06:35:57;;;;;;;7.97;3.42;;;17.10;99.90;;;;;;5013861;28;20041;-67
2023/07/18 06:38:25;;;;;;;9.25;3.38;;;17.10;99.90;;;;;;5012545;28;20069;-67
2023/07/18 06:40:50;;;;;;;7.85;2.80;;;17.20;99.90;;;;;;5012508;28;20064;-67
2023/07/18 06:43:19;;;;;;;8.32;2.85;;;17.30;99.90;;;;;;5016060;28;20034;-67
2023/07/18 06:45:46;;;;;;;11.10;3.35;;;17.40;99.90;;;;;;5013892;28;20081;-67
2023/07/18 06:48:15;;;;;;;8.15;3.10;;;17.50;99.90;;;;;;5010687;28;20026;-67
2023/07/18 06:50:49;;;;;;;6.30;3.10;;;17.60;99.90;;;;;;5013754;28;20570;-67
2023/07/18 06:53:17;;;;;;;7.55;3.22;;;17.80;99.90;;;;;;5012180;28;20124;-67
2023/07/18 06:55:43;;;;;;;10.88;2.80;;;18.10;99.90;;;;;;5010031;28;20583;-67
2023/07/18 06:58:09;;;;;;;12.20;3.22;;;18.40;99.90;;;;;;5010437;28;20046;-67
2023/07/18 07:00:36;;;;;;;11.23;3.30;;;18.40;99.90;;;;;;5012628;28;20049;-67
2023/07/18 07:03:02;;;;;;;8.45;2.88;;;18.50;99.90;;;;;;5011188;28;20070;-67
2023/07/18 07:05:27;;;;;;;8.50;2.75;;;18.40;99.90;;;;;;5011539;28;20085;-67
2023/07/18 07:07:53;;;;;;;7.55;2.80;;;18.40;99.90;;;;;;5011317;28;20041;-68
2023/07/18 07:10:19;;;;;;;10.70;3.55;;;18.30;99.90;;;;;;5028043;28;20033;-68
2023/07/18 07:12:45;;;;;;;7.63;2.88;;;18.30;99.90;;;;;;5023566;28;20069;-67
2023/07/18 07:15:11;;;;;;;7.63;2.63;;;18.50;99.90;;;;;;5009935;28;20031;-67
2023/07/18 07:17:38;;;;;;;9.88;3.40;;;18.70;99.90;;;;;;5008462;28;20038;-68
2023/07/18 07:20:06;;;;;;;8.73;3.25;;;18.90;99.90;;;;;;5010508;28;20435;-67
2023/07/18 07:22:32;;;;;;;9.35;3.00;;;19.00;99.90;;;;;;5011030;28;20044;-67
2023/07/18 07:24:57;;;;;;;7.85;2.97;;;19.10;99.90;;;;;;5012007;28;20033;-67
2023/07/18 07:27:23;;;;;;;10.15;3.50;;;19.30;99.90;;;;;;5012728;28;20439;-67
2023/07/18 07:29:49;;;;;;;6.82;3.20;;;19.40;99.90;;;;;;5011832;28;20072;-67
2023/07/18 07:32:15;;;;;;;10.45;3.60;;;19.40;99.90;;;;;;5011594;28;20038;-67
2023/07/18 07:34:41;;;;;;;11.43;3.75;;;19.50;99.90;;;;;;5012256;28;20076;-67
2023/07/18 07:37:08;;;;;;;10.85;4.05;;;19.50;99.90;;;;;;5011604;28;20046;-68
2023/07/18 07:39:34;;;;;;;11.40;3.28;;;19.50;99.90;;;;;;5010443;28;20046;-67
2023/07/18 07:42:00;;;;;;;6.75;3.08;;;19.60;99.90;;;;;;5012795;28;20052;-67
2023/07/18 07:44:27;;;;;;;8.70;2.72;;;19.60;99.90;;;;;;5011706;28;20065;-67
2023/07/18 07:46:55;;;;;;;9.95;3.28;;;19.70;99.90;;;;;;5012423;28;20046;-68
2023/07/18 07:49:21;;;;;;;11.98;4.13;;;19.80;99.90;;;;;;5010471;28;20033;-68
2023/07/18 07:51:46;;;;;;;13.90;3.10;;;19.80;99.90;;;;;;5011628;28;20050;-68
2023/07/18 07:54:12;;;;;;;11.85;3.45;;;19.90;99.90;;;;;;5009035;28;20042;-68
2023/07/18 07:56:37;;;;;;;13.40;3.30;;;20.00;99.90;;;;;;5012165;28;20419;-68
2023/07/18 07:59:03;;;;;;;10.50;3.45;;;20.20;99.90;;;;;;5012285;28;20046;-68
2023/07/18 08:01:29;;;;;;;10.48;3.13;;;20.40;99.90;;;;;;5012744;28;20034;-68
2023/07/18 08:03:54;;;;;;;11.63;3.40;;;20.60;99.90;;;;;;5006898;28;20042;-68
2023/07/18 08:06:20;;;;;;;15.63;4.20;;;20.70;99.90;;;;;;5008147;28;20043;-67
2023/07/18 08:08:46;;;;;;;13.48;3.80;;;20.90;99.90;;;;;;4993410;28;20043;-68
2023/07/18 08:11:12;;;;;;;11.25;3.45;;;21.00;99.90;;;;;;5020765;28;20040;-68
2023/07/18 08:13:37;;;;;;;11.32;3.63;;;21.20;99.90;;;;;;5007796;28;20030;-68
2023/07/18 08:16:05;;;;;;;7.63;3.33;;;21.30;99.90;;;;;;5008381;28;20033;-68
2023/07/18 08:18:31;;;;;;;11.55;3.70;;;21.30;99.90;;;;;;5010012;28;20077;-68
2023/07/18 08:20:56;;;;;;;8.43;3.38;;;21.50;99.90;;;;;;5009056;28;20123;-68
2023/07/18 08:23:22;;;;;;;9.10;3.28;;;21.50;99.90;;;;;;5010345;28;20034;-68
2023/07/18 08:25:49;;;;;;;11.88;3.40;;;21.50;99.90;;;;;;5011145;28;20034;-68
2023/07/18 08:28:14;;;;;;;12.10;3.42;;;21.60;99.90;;;;;;5009353;28;20106;-68
2023/07/18 08:30:40;;;;;;;11.95;3.75;;;21.70;99.90;;;;;;5011021;28;20124;-68
2023/07/18 08:33:07;;;;;;;10.15;3.38;;;21.80;99.90;;;;;;5011980;28;20100;-68
2023/07/18 08:35:33;;;;;;;11.27;2.95;;;21.80;99.90;;;;;;5011950;28;20392;-68
2023/07/18 08:37:58;;;;;;;13.23;3.38;;;21.80;99.90;;;;;;5011351;28;20045;-68
2023/07/18 08:40:24;;;;;;;11.68;2.97;;;21.80;99.90;;;;;;5009808;28;20066;-68
2023/07/18 08:42:51;;;;;;;10.07;2.78;;;21.90;99.90;;;;;;5010716;28;20026;-68
2023/07/18 08:45:19;;;;;;;11.63;3.08;;;22.00;99.90;;;;;;5009466;28;20041;-68
2023/07/18 08:47:46;;;;;;;9.00;3.17;;;22.00;99.90;;;;;;5008429;28;20041;-69
2023/07/18 08:50:12;;;;;;;7.25;2.47;;;21.90;99.90;;;;;;5008874;28;20037;-68
2023/07/18 08:52:38;;;;;;;7.75;2.45;;;21.90;99.90;;;;;;5010010;28;20121;-69
2023/07/18 08:55:05;;;;;;;6.07;2.35;;;21.90;99.90;;;;;;5010986;28;20046;-68
2023/07/18 08:57:31;;;;;;;7.35;2.25;;;21.90;99.90;;;;;;5009829;28;20077;-68
2023/07/18 09:00:04;;;;;;;3.80;1.70;;;22.00;99.90;;;;;;5007991;28;20073;-68
2023/07/18 09:02:30;;;;;;;7.85;1.98;;;22.20;99.90;;;;;;5010356;28;20080;-68
2023/07/18 09:04:55;;;;;;;8.45;1.80;;;22.30;99.90;;;;;;5002923;28;20073;-68
2023/07/18 09:07:26;;;;;;;6.35;1.50;;;22.50;99.90;;;;;;5009032;28;20068;-69
2023/07/18 09:09:53;;;;;;;6.32;1.80;;;22.60;99.90;;;;;;5009393;28;20049;-68
2023/07/18 09:12:19;;;;;;;6.05;1.60;;;22.70;99.90;;;;;;5009368;28;20042;-68
2023/07/18 09:14:44;;;;;;;6.13;1.80;;;22.70;99.90;;;;;;5009353;28;20550;-69
2023/07/18 09:17:10;;;;;;;7.55;1.90;;;22.80;99.90;;;;;;5000387;28;20050;-68
2023/07/18 09:19:43;;;;;;;8.18;1.73;;;22.90;99.90;;;;;;4996899;28;20053;-69
2023/07/18 09:22:15;;;;;;;4.82;1.35;;;23.00;99.90;;;;;;5011338;28;20034;-68
2023/07/18 09:24:41;;;;;;;5.07;1.30;;;23.10;99.90;;;;;;5010462;28;20038;-68
2023/07/18 09:27:18;;;;;;;5.38;1.38;;;23.10;99.90;;;;;;5011127;28;20048;-68
2023/07/18 09:29:45;;;;;;;6.85;1.50;;;23.20;99.90;;;;;;5009792;28;20069;-69
2023/07/18 09:32:21;;;;;;;5.38;1.75;;;23.30;99.90;;;;;;5009166;28;20050;-69
2023/07/18 09:34:54;;;;;;;3.08;1.13;;;23.30;99.90;;;;;;5010871;28;20042;-68
2023/07/18 09:37:20;;;;;;;4.60;1.40;;;23.30;99.90;;;;;;5004504;28;20339;-68
2023/07/18 09:39:47;;;;;;;3.08;1.08;;;23.30;99.90;;;;;;5002917;28;20034;-68
2023/07/18 09:42:16;;;;;;;4.82;1.10;;;23.30;99.90;;;;;;5014187;28;20091;-69
2023/07/18 09:44:43;;;;;;;3.83;1.02;;;23.30;99.90;;;;;;5012818;28;20042;-68
2023/07/18 09:47:08;;;;;;;3.58;1.70;;;23.30;99.90;;;;;;5014167;28;20050;-68
2023/07/18 09:49:36;;;;;;;5.72;1.20;;;23.30;99.70;;;;;;5012348;28;20045;-68
2023/07/18 09:52:06;;;;;;;4.72;1.00;;;23.30;99.80;;;;;;5011563;28;20100;-68
2023/07/18 09:54:33;;;;;;;3.17;1.10;;;23.20;99.90;;;;;;5013919;28;20087;-68
2023/07/18 09:57:02;;;;;;;2.53;1.00;;;23.30;99.80;;;;;;5014633;28;20175;-68
2023/07/18 09:59:29;;;;;;;4.85;1.02;;;23.40;98.80;;;;;;5013853;28;20034;-68
2023/07/18 10:01:56;;;;;;;5.40;1.00;;;23.50;98.10;;;;;;5013881;28;20040;-68
2023/07/18 10:04:22;;;;;;;4.70;1.15;;;23.50;97.80;;;;;;5013543;28;20611;-68
2023/07/18 10:06:49;;;;;;;3.42;0.90;;;23.50;97.70;;;;;;5013377;28;20041;-68
2023/07/18 10:09:16;;;;;;;2.22;1.10;;;23.60;97.00;;;;;;5013412;28;20042;-68
2023/07/18 10:12:00;;;;;;;1.77;0.80;;;23.60;96.20;;;;;;5012600;28;20111;-68
2023/07/18 10:14:49;;;;;;;2.60;0.90;;;23.70;95.50;;;;;;5007359;28;20120;-68
2023/07/18 10:17:32;;;;;;;4.22;0.82;;;23.60;95.00;;;;;;5006295;28;20037;-68
2023/07/18 10:19:58;;;;;;;2.88;0.95;;;23.60;94.00;;;;;;5013069;28;20042;-68
2023/07/18 10:22:30;;;;;;;3.60;1.20;;;23.60;94.70;;;;;;5013570;28;20392;-68
2023/07/18 10:25:12;;;;;;;4.75;0.88;;;23.60;94.00;;;;;;5007326;28;20034;-68
2023/07/18 10:27:43;;;;;;;3.20;1.17;;;23.80;94.10;;;;;;5005412;28;20054;-68
2023/07/18 10:30:18;;;;;;;2.10;0.80;;;23.80;93.90;;;;;;5012918;28;20157;-68
2023/07/18 10:32:52;;;;;;;1.90;0.70;;;23.90;94.70;;;;;;5010863;28;20060;-68
2023/07/18 10:35:19;;;;;;;2.60;0.70;;;24.00;93.40;;;;;;5013421;28;20052;-68
2023/07/18 10:37:50;;;;;;;2.00;0.95;;;24.10;93.60;;;;;;5011045;28;20041;-68
2023/07/18 10:40:43;;;;;;;3.05;1.00;;;24.10;92.90;;;;;;5009873;28;20038;-68
2023/07/18 10:43:16;;;;;;;1.30;0.57;;;24.10;92.20;;;;;;5010473;28;20058;-68
2023/07/18 10:45:42;;;;;;;1.90;0.90;;;24.10;90.80;;;;;;5012063;28;20492;-68
2023/07/18 10:48:19;;;;;;;2.38;0.68;;;24.00;91.10;;;;;;5010911;28;20543;-68
2023/07/18 10:50:47;;;;;;;0.57;0.55;;;24.00;90.60;;;;;;5012020;28;20045;-68
2023/07/18 10:53:20;;;;;;;2.60;1.00;;;24.00;90.90;;;;;;5026603;28;20054;-68
2023/07/18 10:55:47;;;;;;;2.72;0.75;;;24.20;91.00;;;;;;5010672;28;20056;-68
2023/07/18 10:58:20;;;;;;;4.53;0.80;;;24.20;91.50;;;;;;5013131;28;20042;-68
2023/07/18 11:00:47;;;;;;;3.83;0.90;;;24.30;91.30;;;;;;5011494;28;20045;-68
2023/07/18 11:03:23;;;;;;;3.38;0.75;;;24.40;90.90;;;;;;5010594;28;20121;-68
2023/07/18 11:05:52;;;;;;;3.38;0.90;;;24.40;90.50;;;;;;5012645;28;20042;-68
2023/07/18 11:08:25;;;;;;;2.28;0.65;;;24.40;90.00;;;;;;5034256;23;20487;-67
2023/07/18 11:10:58;;;;;;;3.33;1.10;;;24.50;85.60;;;;;;5029813;28;20043;-67
2023/07/18 11:13:35;;;;;;;3.70;0.98;;;24.40;86.20;;;;;;5025817;28;20041;-67
2023/07/18 11:16:04;;;;;;;3.17;1.30;;;24.40;85.80;;;;;;5026656;28;20041;-66
2023/07/18 11:18:43;;;;;;;1.67;0.88;;;24.50;88.20;;;;;;5026803;28;20125;-67
2023/07/18 11:21:10;;;;;;;2.05;1.13;;;24.40;86.90;;;;;;5008763;28;20097;-67
2023/07/18 11:23:37;;;;;;;2.55;0.88;;;24.40;85.10;;;;;;5006082;28;20081;-67
2023/07/18 11:26:17;;;;;;;2.83;1.00;;;24.40;84.50;;;;;;5016354;28;20068;-68
2023/07/18 11:28:51;;;;;;;2.15;0.88;;;24.50;84.20;;;;;;5011896;28;20037;-68
2023/07/18 11:31:24;;;;;;;3.08;0.90;;;24.60;85.20;;;;;;5010911;28;20045;-68
2023/07/18 11:33:52;;;;;;;1.60;0.80;;;24.80;84.30;;;;;;4993333;28;20038;-68
2023/07/18 11:36:17;;;;;;;3.03;1.13;;;24.80;83.10;;;;;;5014102;28;20033;-68
2023/07/18 11:38:44;;;;;;;1.90;1.00;;;24.80;81.90;;;;;;5010984;28;20045;-68
2023/07/18 11:41:14;;;;;;;4.43;1.17;;;24.90;83.80;;;;;;5012602;28;20025;-68
2023/07/18 11:43:41;;;;;;;2.35;0.90;;;24.90;82.30;;;;;;5010067;28;20122;-68
2023/07/18 11:46:08;;;;;;;2.70;0.80;;;25.00;82.40;;;;;;5014007;28;20504;-68
2023/07/18 11:48:34;;;;;;;2.88;1.15;;;25.10;83.40;;;;;;5010342;28;20089;-68
2023/07/18 11:51:10;;;;;;;2.65;1.00;;;25.10;81.20;;;;;;4992829;28;20412;-68
2023/07/18 11:53:35;;;;;;;3.20;1.20;;;25.10;81.50;;;;;;4993275;28;20045;-69
2023/07/18 11:56:01;;;;;;;3.67;1.10;;;25.10;82.30;;;;;;5017424;28;20427;-68
2023/07/18 11:58:26;;;;;;;2.08;0.98;;;25.20;82.40;;;;;;5018414;28;20103;-68
2023/07/18 12:00:57;;;;;;;1.85;0.93;;;25.20;79.40;;;;;;5017914;28;20042;-69
2023/07/18 12:03:23;;;;;;;3.63;0.98;;;25.20;79.10;;;;;;5004701;28;20030;-69
2023/07/18 12:05:49;;;;;;;3.05;0.80;;;25.30;79.60;;;;;;5015910;28;20140;-69
2023/07/18 12:08:16;;;;;;;2.22;0.73;;;25.20;80.70;;;;;;5016209;28;20044;-68
2023/07/18 12:10:43;;;;;;;3.08;0.77;;;25.20;80.10;;;;;;5017019;28;20041;-68
2023/07/18 12:13:09;;;;;;;2.40;0.70;;;25.20;79.60;;;;;;5010643;28;20538;-68
2023/07/18 12:15:34;;;;;;;2.55;0.90;;;25.10;77.90;;;;;;5003584;28;20029;-69
2023/07/18 12:18:00;;;;;;;1.83;0.70;;;25.00;78.40;;;;;;5013198;28;20133;-69
2023/07/18 12:20:26;;;;;;;4.60;0.90;;;24.90;78.50;;;;;;4995176;28;20058;-68
2023/07/18 12:22:53;;;;;;;2.80;0.70;;;24.90;77.50;;;;;;4999665;28;20390;-68
2023/07/18 12:25:19;;;;;;;2.30;0.68;;;25.00;77.00;;;;;;5011771;28;20049;-68
2023/07/18 12:27:44;;;;;;;2.20;0.80;;;25.00;77.10;;;;;;5009174;28;20042;-68
2023/07/18 12:30:12;;;;;;;2.22;0.75;;;25.00;77.40;;;;;;5016699;28;20116;-68
2023/07/18 12:32:37;;;;;;;1.45;0.80;;;25.10;76.70;;;;;;5016025;28;20045;-68
2023/07/18 12:35:03;;;;;;;1.90;0.50;;;25.20;76.30;;;;;;5010360;28;20038;-68
2023/07/18 12:37:29;;;;;;;2.42;0.70;;;25.30;75.80;;;;;;5007617;28;20463;-69
2023/07/18 12:39:55;;;;;;;0.77;0.55;;;25.40;75.20;;;;;;5016445;28;20034;-69
2023/07/18 12:42:20;;;;;;;3.60;0.52;;;25.40;74.20;;;;;;5017825;28;20511;-69
2023/07/18 12:44:46;;;;;;;2.15;0.80;;;25.50;73.60;;;;;;5009594;28;20038;-69
2023/07/18 12:47:12;;;;;;;2.13;0.70;;;25.40;72.50;;;;;;5003997;28;20113;-69